createdAt,value
2019-05-20T00:03:48.011Z,14.33
2019-05-20T00:06:37.759Z,14.25
2019-05-20T00:09:27.554Z,14.20
2019-05-20T00:12:17.321Z,14.20
2019-05-20T00:14:47.701Z,14.16
2019-05-20T00:17:37.447Z,14.17
2019-05-20T00:20:27.327Z,14.16
2019-05-20T00:23:17.077Z,14.21
2019-05-20T00:26:06.857Z,14.22
2019-05-20T00:28:56.655Z,14.18
2019-05-20T00:31:46.459Z,14.11
2019-05-20T00:34:36.272Z,14.10
2019-05-20T00:37:06.662Z,14.06
2019-05-20T00:39:56.396Z,14.03
2019-05-20T00:42:46.261Z,14.11
2019-05-20T00:45:36.025Z,14.05
2019-05-20T00:48:06.496Z,14.01
2019-05-20T00:50:56.562Z,14.04
2019-05-20T00:53:28.119Z,14.07
2019-05-20T00:56:17.867Z,14.05
2019-05-20T01:02:12.927Z,14.01
2019-05-20T01:05:02.706Z,14.04
2019-05-20T01:07:52.475Z,14.08
2019-05-20T01:10:42.358Z,14.13
2019-05-20T01:13:32.139Z,14.20
2019-05-20T01:16:21.901Z,14.09
2019-05-20T01:19:11.727Z,14.06
2019-05-20T01:22:01.480Z,14.01
2019-05-20T01:24:51.536Z,13.99
2019-05-20T01:27:21.996Z,14.01
2019-05-20T01:33:16.023Z,14.00
2019-05-20T01:36:06.159Z,13.97
2019-05-20T01:38:55.949Z,14.00
2019-05-20T01:41:45.735Z,13.99
2019-05-20T01:44:16.123Z,14.01
2019-05-20T01:47:05.869Z,14.01
2019-05-20T01:49:55.660Z,14.04
2019-05-20T01:52:45.425Z,14.01
2019-05-20T01:55:35.229Z,14.05
2019-05-20T01:58:24.990Z,14.05
2019-05-20T02:01:14.831Z,14.04
2019-05-20T02:03:45.191Z,14.09
2019-05-20T02:06:34.977Z,14.07
2019-05-20T02:09:24.724Z,14.10
2019-05-20T02:12:14.555Z,14.09
2019-05-20T02:18:05.521Z,14.04
2019-05-20T02:20:55.308Z,14.05
2019-05-20T02:23:45.103Z,14.01
2019-05-20T02:26:34.908Z,14.00
2019-05-20T02:29:24.743Z,14.01
2019-05-20T02:32:14.554Z,14.02
2019-05-20T02:35:04.420Z,14.03
2019-05-20T02:37:54.259Z,14.07
2019-05-20T02:40:44.244Z,14.13
2019-05-20T02:43:34.053Z,14.10
2019-05-20T02:46:23.853Z,14.16
2019-05-20T02:49:13.658Z,14.09
2019-05-20T02:52:03.466Z,14.12
2019-05-20T02:54:53.282Z,14.03
2019-05-20T02:57:43.144Z,13.99
2019-05-20T03:00:32.933Z,14.03
2019-05-20T03:03:22.694Z,14.03
2019-05-20T03:06:12.495Z,14.00
2019-05-20T03:09:02.326Z,13.93
2019-05-20T03:11:52.121Z,13.89
2019-05-20T03:14:42.084Z,13.91
2019-05-20T03:17:12.477Z,13.82
2019-05-20T03:20:02.281Z,13.80
2019-05-20T03:22:52.096Z,13.78
2019-05-20T03:25:42.078Z,13.79
2019-05-20T03:28:12.620Z,13.82
2019-05-20T03:31:02.440Z,13.86
2019-05-20T03:33:52.237Z,13.94
2019-05-20T03:36:42.113Z,14.00
2019-05-20T03:39:31.917Z,13.92
2019-05-20T03:42:21.721Z,13.97
2019-05-20T03:48:15.700Z,13.95
2019-05-20T03:51:05.506Z,14.01
2019-05-20T03:53:55.305Z,13.96
2019-05-20T03:56:45.207Z,13.90
2019-05-20T03:59:35.063Z,13.87
2019-05-20T04:05:08.723Z,13.90
2019-05-20T04:11:02.878Z,13.91
2019-05-20T04:13:52.648Z,13.93
2019-05-20T04:16:42.463Z,13.97
2019-05-20T04:19:32.227Z,13.98
2019-05-20T04:22:21.982Z,13.94
2019-05-20T04:25:11.740Z,13.93
2019-05-20T04:28:01.568Z,14.01
2019-05-20T04:30:51.330Z,14.02
2019-05-20T04:33:41.124Z,13.99
2019-05-20T04:39:33.049Z,14.02
2019-05-20T04:42:22.789Z,14.04
2019-05-20T04:45:12.783Z,14.05
2019-05-20T04:48:02.560Z,14.10
2019-05-20T04:50:52.357Z,14.11
2019-05-20T04:53:42.972Z,14.13
2019-05-20T04:56:32.796Z,14.07
2019-05-20T04:59:22.596Z,14.07
2019-05-20T05:02:12.437Z,14.07
2019-05-20T05:05:02.321Z,14.05
2019-05-20T05:07:52.167Z,14.02
2019-05-20T05:10:42.001Z,14.07
2019-05-20T05:13:31.840Z,14.20
2019-05-20T05:16:21.649Z,14.19
2019-05-20T05:19:11.498Z,14.15
2019-05-20T05:22:01.346Z,14.24
2019-05-20T05:24:51.233Z,14.24
2019-05-20T05:27:41.032Z,14.20
2019-05-20T05:30:30.873Z,14.22
2019-05-20T05:35:53.733Z,14.22
2019-05-20T05:38:25.159Z,14.29
2019-05-20T05:41:14.934Z,14.23
2019-05-20T05:44:05.719Z,14.24
2019-05-20T05:46:55.577Z,14.33
2019-05-20T05:49:45.333Z,14.44
2019-05-20T05:52:35.128Z,14.41
2019-05-20T05:55:24.961Z,14.46
2019-05-20T05:58:14.733Z,14.58
2019-05-20T06:01:04.542Z,14.45
2019-05-20T06:09:45.692Z,14.42
2019-05-20T06:12:35.555Z,14.41
2019-05-20T06:15:25.447Z,14.47
2019-05-20T06:18:15.283Z,14.42
2019-05-20T06:21:05.237Z,14.46
2019-05-20T06:23:55.085Z,14.47
2019-05-20T06:26:25.454Z,14.55
2019-05-20T06:28:55.899Z,14.73
2019-05-20T06:31:45.710Z,14.76
2019-05-20T06:34:35.535Z,14.84
2019-05-20T06:40:22.334Z,15.02
2019-05-20T06:43:12.163Z,15.13
2019-05-20T06:46:01.961Z,15.19
2019-05-20T06:48:51.752Z,15.23
2019-05-20T06:51:41.580Z,15.30
2019-05-20T06:54:31.357Z,15.43
2019-05-20T06:57:23.836Z,15.57
2019-05-20T06:59:58.770Z,15.68
2019-05-20T07:02:51.931Z,15.82
2019-05-20T07:05:26.201Z,15.88
2019-05-20T07:08:16.004Z,15.94
2019-05-20T07:11:05.877Z,15.86
2019-05-20T07:13:55.818Z,15.99
2019-05-20T07:16:45.648Z,15.89
2019-05-20T07:19:35.492Z,15.93
2019-05-20T07:22:25.270Z,16.07
2019-05-20T07:24:55.802Z,16.18
2019-05-20T07:27:45.604Z,16.27
2019-05-20T07:33:39.767Z,16.21
2019-05-20T07:36:29.590Z,16.37
2019-05-20T07:39:19.331Z,16.38
2019-05-20T07:42:09.175Z,16.35
2019-05-20T07:44:59.201Z,16.40
2019-05-20T07:47:49.107Z,16.51
2019-05-20T08:02:55.705Z,17.59
2019-05-20T08:05:45.510Z,17.77
2019-05-20T08:08:16.089Z,17.81
2019-05-20T08:14:07.696Z,18.30
2019-05-20T08:16:57.566Z,18.54
2019-05-20T08:19:47.350Z,18.62
2019-05-20T08:22:37.133Z,18.89
2019-05-20T08:28:09.959Z,19.83
2019-05-20T08:30:59.785Z,20.35
2019-05-20T08:33:49.633Z,20.68
2019-05-20T08:36:39.425Z,20.76
2019-05-20T08:39:29.260Z,20.77
2019-05-20T08:42:19.009Z,20.88
2019-05-20T08:45:08.982Z,20.92
2019-05-20T08:47:58.786Z,21.03
2019-05-20T08:50:48.662Z,20.84
2019-05-20T08:53:38.482Z,20.74
2019-05-20T08:56:28.422Z,21.10
2019-05-20T08:58:59.091Z,21.00
2019-05-20T09:01:48.894Z,20.83
2019-05-20T09:04:38.750Z,20.72
2019-05-20T09:07:28.608Z,20.98
2019-05-20T09:13:22.286Z,20.79
2019-05-20T09:16:12.113Z,20.80
2019-05-20T09:19:02.175Z,20.92
2019-05-20T09:21:52.067Z,21.30
2019-05-20T09:24:22.440Z,21.24
2019-05-20T09:26:52.861Z,21.12
2019-05-20T09:29:42.709Z,21.28
2019-05-20T09:32:32.518Z,21.21
2019-05-20T09:35:22.351Z,21.17
2019-05-20T09:38:20.369Z,21.27
2019-05-20T09:40:55.623Z,21.49
2019-05-20T09:43:45.572Z,21.62
2019-05-20T09:46:28.393Z,21.75
2019-05-20T09:49:18.179Z,21.79
2019-05-20T09:58:13.464Z,22.20
2019-05-20T10:01:03.281Z,22.46
2019-05-20T10:03:40.179Z,22.43
2019-05-20T10:06:10.566Z,22.58
2019-05-20T10:09:00.383Z,22.63
2019-05-20T10:11:50.181Z,22.98
2019-05-20T10:14:39.988Z,23.17
2019-05-20T10:17:29.805Z,22.81
2019-05-20T10:20:19.700Z,22.63
2019-05-20T10:23:09.513Z,22.69
2019-05-20T10:26:18.193Z,22.64
2019-05-20T10:29:08.069Z,22.42
2019-05-20T10:31:57.859Z,22.70
2019-05-20T10:34:47.697Z,22.89
2019-05-20T10:37:37.514Z,23.02
2019-05-20T10:40:27.321Z,22.75
2019-05-20T10:43:17.176Z,22.57
2019-05-20T10:46:07.101Z,22.48
2019-05-20T10:48:56.922Z,22.66
2019-05-20T10:51:46.764Z,22.86
2019-05-20T10:54:36.614Z,22.70
2019-05-20T10:57:09.473Z,22.79
2019-05-20T10:59:39.867Z,22.86
2019-05-20T11:02:31.334Z,22.71
2019-05-20T11:05:51.547Z,23.04
2019-05-20T11:08:41.416Z,23.33
2019-05-20T11:11:31.290Z,23.71
2019-05-20T11:14:21.089Z,23.86
2019-05-20T11:17:14.885Z,23.42
2019-05-20T11:19:55.685Z,23.29
2019-05-20T11:22:45.521Z,23.70
2019-05-20T11:25:35.421Z,23.54
2019-05-20T11:28:25.201Z,23.31
2019-05-20T11:31:14.967Z,23.43
2019-05-20T11:34:04.800Z,23.49
2019-05-20T11:36:54.597Z,23.65
2019-05-20T11:39:44.380Z,23.97
2019-05-20T11:42:34.172Z,24.04
2019-05-20T11:45:24.005Z,24.29
2019-05-20T11:48:25.287Z,24.48
2019-05-20T11:50:57.880Z,24.34
2019-05-20T11:53:47.646Z,23.97
2019-05-20T11:56:37.495Z,23.45
2019-05-20T11:59:09.538Z,23.66
2019-05-20T12:01:40.023Z,23.98
2019-05-20T12:04:29.812Z,24.43
2019-05-20T12:07:00.250Z,24.68
2019-05-20T12:09:50.417Z,25.40
2019-05-20T12:12:33.020Z,25.28
2019-05-20T12:15:22.874Z,25.14
2019-05-20T12:18:12.761Z,25.39
2019-05-20T12:21:02.567Z,25.70
2019-05-20T12:23:52.467Z,25.75
2019-05-20T12:26:42.291Z,26.12
2019-05-20T12:29:32.120Z,26.18
2019-05-20T12:32:21.954Z,25.69
2019-05-20T12:35:11.970Z,25.57
2019-05-20T12:37:45.498Z,25.29
2019-05-20T12:40:25.804Z,25.20
2019-05-20T12:45:59.298Z,24.60
2019-05-20T12:48:49.157Z,24.78
2019-05-20T12:51:38.944Z,24.78
2019-05-20T12:54:28.745Z,24.95
2019-05-20T12:57:18.567Z,25.12
2019-05-20T13:03:13.236Z,24.07
2019-05-20T13:06:03.026Z,24.03
2019-05-20T13:08:52.886Z,23.99
2019-05-20T13:11:23.296Z,23.90
2019-05-20T13:14:13.103Z,23.95
2019-05-20T13:17:03.021Z,24.23
2019-05-20T13:19:33.348Z,24.59
2019-05-20T13:22:23.130Z,24.91
2019-05-20T13:25:13.059Z,24.96
2019-05-20T13:27:43.498Z,25.62
2019-05-20T13:30:33.301Z,26.31
2019-05-20T13:33:23.105Z,27.18
2019-05-20T13:36:12.913Z,27.18
2019-05-20T13:38:43.453Z,26.47
2019-05-20T13:41:33.289Z,25.56
2019-05-20T13:44:23.059Z,25.48
2019-05-20T13:47:12.855Z,25.95
2019-05-20T13:50:02.627Z,26.76
2019-05-20T13:52:52.483Z,27.06
2019-05-20T13:55:42.279Z,26.55
2019-05-20T13:58:32.082Z,26.43
2019-05-20T14:01:21.961Z,27.37
2019-05-20T14:04:12.225Z,28.25
2019-05-20T14:07:01.976Z,29.09
2019-05-20T14:09:51.835Z,29.49
2019-05-20T14:12:41.617Z,29.52
2019-05-20T14:15:31.473Z,30.01
2019-05-20T14:18:21.275Z,30.70
2019-05-20T14:21:11.208Z,30.90
2019-05-20T14:24:01.009Z,31.57
2019-05-20T14:26:50.819Z,31.98
2019-05-20T14:29:40.622Z,33.08
2019-05-20T14:32:30.442Z,32.68
2019-05-20T14:35:20.253Z,32.68
2019-05-20T14:38:10.085Z,30.87
2019-05-20T14:40:59.941Z,29.36
2019-05-20T14:43:49.750Z,28.76
2019-05-20T14:46:39.543Z,29.65
2019-05-20T14:49:29.344Z,29.85
2019-05-20T14:52:19.164Z,28.59
2019-05-20T14:55:09.203Z,28.55
2019-05-20T14:57:59.064Z,26.74
2019-05-20T15:00:48.948Z,26.56
2019-05-20T15:03:38.794Z,26.57
2019-05-20T15:06:28.635Z,27.06
2019-05-20T15:09:18.536Z,27.82
2019-05-20T15:18:18.012Z,27.19
2019-05-20T15:21:07.711Z,26.61
2019-05-20T15:23:57.590Z,25.93
2019-05-20T15:26:47.450Z,25.51
2019-05-20T15:29:37.315Z,25.28
2019-05-20T15:32:08.679Z,24.91
2019-05-20T15:34:58.523Z,24.70
2019-05-20T15:37:28.956Z,24.77
2019-05-20T15:40:23.594Z,24.79
2019-05-20T15:43:02.092Z,24.76
2019-05-20T15:45:51.940Z,24.64
2019-05-20T15:48:41.797Z,24.81
2019-05-20T15:51:31.659Z,25.25
2019-05-20T15:54:21.468Z,26.00
2019-05-20T15:57:11.402Z,26.54
2019-05-20T16:00:01.152Z,26.88
2019-05-20T16:02:50.952Z,26.86
2019-05-20T16:05:40.748Z,27.54
2019-05-20T16:08:11.596Z,28.23
2019-05-20T16:11:01.420Z,28.31
2019-05-20T16:13:51.268Z,28.19
2019-05-20T16:16:41.013Z,28.27
2019-05-20T16:19:30.874Z,28.17
2019-05-20T16:22:20.716Z,28.60
2019-05-20T16:25:10.723Z,28.79
2019-05-20T16:27:41.666Z,28.13
2019-05-20T16:30:24.527Z,27.91
2019-05-20T16:33:14.419Z,28.47
2019-05-20T16:36:04.206Z,29.25
2019-05-20T16:39:13.031Z,29.84
2019-05-20T16:42:02.815Z,30.60
2019-05-20T16:44:52.641Z,30.50
2019-05-20T16:50:26.260Z,30.24
2019-05-20T16:53:16.159Z,30.76
2019-05-20T16:56:06.117Z,31.97
2019-05-20T16:58:55.895Z,32.69
2019-05-20T17:01:46.684Z,33.39
2019-05-20T17:04:37.300Z,33.86
2019-05-20T17:07:27.168Z,33.84
2019-05-20T17:09:59.178Z,34.18
2019-05-20T17:12:29.699Z,33.27
2019-05-20T17:15:19.743Z,32.18
2019-05-20T17:18:28.714Z,30.86
2019-05-20T17:21:18.597Z,29.73
2019-05-20T17:24:08.452Z,28.74
2019-05-20T17:26:58.385Z,27.83
2019-05-20T17:29:48.188Z,27.18
2019-05-20T17:32:38.011Z,26.00
2019-05-20T17:35:27.949Z,24.97
2019-05-20T17:37:58.557Z,24.18
2019-05-20T17:40:48.349Z,23.44
2019-05-20T17:43:38.182Z,22.76
2019-05-20T17:46:28.098Z,22.07
2019-05-20T17:48:58.740Z,21.56
2019-05-20T17:51:48.570Z,21.29
2019-05-20T17:54:38.383Z,20.96
2019-05-20T17:57:28.241Z,20.60
2019-05-20T17:59:58.817Z,20.27
2019-05-20T18:02:48.678Z,19.94
2019-05-20T18:05:38.500Z,19.66
2019-05-20T18:11:12.427Z,19.02
2019-05-20T18:14:02.203Z,18.77
2019-05-20T18:16:52.090Z,18.64
2019-05-20T18:19:22.959Z,18.27
2019-05-20T18:22:12.890Z,18.03
2019-05-20T18:25:02.802Z,17.73
2019-05-20T18:27:52.774Z,17.56
2019-05-20T18:30:42.691Z,17.40
2019-05-20T18:33:32.518Z,17.27
2019-05-20T18:36:22.361Z,17.15
2019-05-20T18:38:52.859Z,16.98
2019-05-20T18:41:42.642Z,16.86
2019-05-20T18:44:32.448Z,16.78
2019-05-20T18:47:02.967Z,16.65
2019-05-20T18:49:52.802Z,16.54
2019-05-20T18:52:42.592Z,16.38
2019-05-20T18:55:34.852Z,16.28
2019-05-20T18:58:23.926Z,16.19
2019-05-20T19:01:27.738Z,16.08
2019-05-20T19:03:59.013Z,16.10
2019-05-20T19:06:48.835Z,15.95
2019-05-20T19:09:38.704Z,15.77
2019-05-20T19:12:28.567Z,15.71
2019-05-20T19:14:59.058Z,15.65
2019-05-20T19:17:48.886Z,15.59
2019-05-20T19:20:38.698Z,15.46
2019-05-20T19:23:28.523Z,15.39
2019-05-20T19:26:25.144Z,15.34
2019-05-20T19:29:01.577Z,15.36
2019-05-20T19:32:01.559Z,15.30
2019-05-20T19:34:29.000Z,15.15
2019-05-20T19:37:18.899Z,15.01
2019-05-20T19:43:14.189Z,14.81
2019-05-20T19:46:04.011Z,14.78
2019-05-20T19:48:53.824Z,14.68
2019-05-20T19:51:43.665Z,14.66
2019-05-20T19:54:33.497Z,14.59
2019-05-20T19:57:23.743Z,14.52
2019-05-20T19:59:54.327Z,14.48
2019-05-20T20:02:45.059Z,14.44
2019-05-20T20:05:34.938Z,14.48
2019-05-20T20:08:24.728Z,14.50
2019-05-20T20:10:55.280Z,14.49
2019-05-20T20:13:45.142Z,14.44
2019-05-20T20:16:34.996Z,14.42
2019-05-20T20:19:24.826Z,14.35
2019-05-20T20:22:14.726Z,14.31
2019-05-20T20:24:45.311Z,14.24
2019-05-20T20:27:35.202Z,14.18
2019-05-20T20:30:25.087Z,14.12
2019-05-20T20:33:14.969Z,14.07
2019-05-20T20:36:04.803Z,14.01
2019-05-20T20:38:35.417Z,13.99
2019-05-20T20:41:25.252Z,13.96
2019-05-20T20:44:15.110Z,13.91
2019-05-20T20:47:04.889Z,13.87
2019-05-20T20:49:54.718Z,13.79
2019-05-20T20:52:44.478Z,13.72
2019-05-20T20:55:34.337Z,13.68
2019-05-20T20:58:24.117Z,13.63
2019-05-20T21:01:13.988Z,13.61
2019-05-20T21:04:03.816Z,13.59
2019-05-20T21:06:53.635Z,13.65
2019-05-20T21:09:43.763Z,13.65
2019-05-20T21:12:33.583Z,13.66
2019-05-20T21:15:23.413Z,13.70
2019-05-20T21:17:53.812Z,13.80
2019-05-20T21:20:43.650Z,13.77
2019-05-20T21:23:33.438Z,13.85
2019-05-20T21:26:23.244Z,13.87
2019-05-20T21:29:13.065Z,13.85
2019-05-20T21:32:02.908Z,13.83
2019-05-20T21:34:52.734Z,13.84
2019-05-20T21:37:42.529Z,13.84
2019-05-20T21:40:32.360Z,13.78
2019-05-20T21:43:22.139Z,13.76
2019-05-20T21:45:52.735Z,13.65
2019-05-20T21:48:42.493Z,13.59
2019-05-20T21:51:32.339Z,13.57
2019-05-20T21:54:22.174Z,13.56
2019-05-20T21:56:52.677Z,13.64
2019-05-20T21:59:42.457Z,13.69
2019-05-20T22:02:32.249Z,13.73
2019-05-20T22:05:22.018Z,13.66
2019-05-20T22:08:11.845Z,13.62
2019-05-20T22:11:01.648Z,13.57
2019-05-20T22:13:51.453Z,13.51
2019-05-20T22:16:41.200Z,13.45
2019-05-20T22:19:31.012Z,13.46
2019-05-20T22:25:21.977Z,13.35
2019-05-20T22:28:12.944Z,13.36
2019-05-20T22:30:49.972Z,13.37
2019-05-20T22:33:42.194Z,13.28
2019-05-20T22:36:23.030Z,13.20
2019-05-20T22:39:12.863Z,13.17
2019-05-20T22:42:02.663Z,13.07
2019-05-20T22:44:52.731Z,12.96
2019-05-20T22:47:42.551Z,12.86
2019-05-20T22:50:32.431Z,12.78
2019-05-20T22:53:22.231Z,12.68
2019-05-20T22:56:12.037Z,12.60
2019-05-20T22:59:01.893Z,12.60
2019-05-20T23:01:52.086Z,12.45
2019-05-20T23:04:41.978Z,12.39
2019-05-20T23:07:31.870Z,12.46
2019-05-20T23:10:21.728Z,12.45
2019-05-20T23:15:34.243Z,12.33
2019-05-20T23:18:24.107Z,12.23
2019-05-20T23:21:13.962Z,12.10
2019-05-20T23:23:44.548Z,12.07
2019-05-20T23:26:34.408Z,12.00
2019-05-20T23:29:24.247Z,11.90
2019-05-20T23:32:14.591Z,11.86
2019-05-20T23:35:04.454Z,11.80
2019-05-20T23:37:54.370Z,11.87
2019-05-20T23:40:44.263Z,11.78
2019-05-20T23:43:34.103Z,11.68
2019-05-20T23:46:35.357Z,11.61
2019-05-20T23:49:06.231Z,11.57
2019-05-20T23:51:56.045Z,11.67
2019-05-20T23:54:26.434Z,11.59
